sensor_id;sensor_type;location;lat;lon;timestamp;temperature;humidity
33863;DHT22;20158;51.436;-2.742;2023-02-12T00:00:32;11.00;67.60
33863;DHT22;20158;51.436;-2.742;2023-02-12T00:02:58;11.00;67.50
33863;DHT22;20158;51.436;-2.742;2023-02-12T00:05:24;11.00;67.50
33863;DHT22;20158;51.436;-2.742;2023-02-12T00:07:50;11.00;67.50
33863;DHT22;20158;51.436;-2.742;2023-02-12T00:10:17;11.00;67.50
33863;DHT22;20158;51.436;-2.742;2023-02-12T00:12:43;11.00;67.50
33863;DHT22;20158;51.436;-2.742;2023-02-12T00:15:09;11.00;67.60
33863;DHT22;20158;51.436;-2.742;2023-02-12T00:17:35;10.90;67.40
33863;DHT22;20158;51.436;-2.742;2023-02-12T00:20:02;10.90;67.40
33863;DHT22;20158;51.436;-2.742;2023-02-12T00:22:28;11.00;67.60
33863;DHT22;20158;51.436;-2.742;2023-02-12T00:24:55;10.90;67.50
33863;DHT22;20158;51.436;-2.742;2023-02-12T00:27:21;10.90;67.50
33863;DHT22;20158;51.436;-2.742;2023-02-12T00:29:47;10.90;67.90
33863;DHT22;20158;51.436;-2.742;2023-02-12T00:32:13;10.90;67.60
33863;DHT22;20158;51.436;-2.742;2023-02-12T00:34:47;10.90;67.60
33863;DHT22;20158;51.436;-2.742;2023-02-12T00:37:15;10.80;67.50
33863;DHT22;20158;51.436;-2.742;2023-02-12T00:39:41;10.80;67.50
33863;DHT22;20158;51.436;-2.742;2023-02-12T00:42:07;10.90;67.70
33863;DHT22;20158;51.436;-2.742;2023-02-12T00:44:33;10.80;67.60
33863;DHT22;20158;51.436;-2.742;2023-02-12T00:47:05;10.80;67.60
33863;DHT22;20158;51.436;-2.742;2023-02-12T00:49:31;10.90;67.80
33863;DHT22;20158;51.436;-2.742;2023-02-12T00:52:01;10.80;67.60
33863;DHT22;20158;51.436;-2.742;2023-02-12T00:54:28;10.80;67.60
33863;DHT22;20158;51.436;-2.742;2023-02-12T00:56:54;10.90;67.80
33863;DHT22;20158;51.436;-2.742;2023-02-12T00:59:22;10.90;67.80
33863;DHT22;20158;51.436;-2.742;2023-02-12T01:01:48;10.80;67.60
33863;DHT22;20158;51.436;-2.742;2023-02-12T01:04:14;10.90;67.80
33863;DHT22;20158;51.436;-2.742;2023-02-12T01:06:40;10.90;67.80
33863;DHT22;20158;51.436;-2.742;2023-02-12T01:09:06;10.90;67.80
33863;DHT22;20158;51.436;-2.742;2023-02-12T01:11:32;10.90;67.80
33863;DHT22;20158;51.436;-2.742;2023-02-12T01:13:58;10.90;67.80
33863;DHT22;20158;51.436;-2.742;2023-02-12T01:16:25;10.90;68.30
33863;DHT22;20158;51.436;-2.742;2023-02-12T01:18:52;10.80;67.70
33863;DHT22;20158;51.436;-2.742;2023-02-12T01:21:21;10.90;67.80
33863;DHT22;20158;51.436;-2.742;2023-02-12T01:23:48;10.90;67.90
33863;DHT22;20158;51.436;-2.742;2023-02-12T01:26:15;10.90;67.80
33863;DHT22;20158;51.436;-2.742;2023-02-12T01:28:43;10.90;67.90
33863;DHT22;20158;51.436;-2.742;2023-02-12T01:31:11;10.90;67.90
33863;DHT22;20158;51.436;-2.742;2023-02-12T01:33:38;10.80;67.70
33863;DHT22;20158;51.436;-2.742;2023-02-12T01:36:04;10.90;67.90
33863;DHT22;20158;51.436;-2.742;2023-02-12T01:38:30;10.80;67.70
33863;DHT22;20158;51.436;-2.742;2023-02-12T01:41:08;10.80;67.70
33863;DHT22;20158;51.436;-2.742;2023-02-12T01:43:35;10.80;67.80
33863;DHT22;20158;51.436;-2.742;2023-02-12T01:46:04;10.80;67.80
33863;DHT22;20158;51.436;-2.742;2023-02-12T01:48:36;10.80;67.80
33863;DHT22;20158;51.436;-2.742;2023-02-12T01:51:03;10.80;67.80
33863;DHT22;20158;51.436;-2.742;2023-02-12T01:53:37;10.80;67.90
33863;DHT22;20158;51.436;-2.742;2023-02-12T01:56:05;10.70;67.70
33863;DHT22;20158;51.436;-2.742;2023-02-12T01:58:37;10.70;67.70
33863;DHT22;20158;51.436;-2.742;2023-02-12T02:01:06;10.70;67.80
33863;DHT22;20158;51.436;-2.742;2023-02-12T02:03:33;10.70;67.80
33863;DHT22;20158;51.436;-2.742;2023-02-12T02:06:05;10.70;67.80
33863;DHT22;20158;51.436;-2.742;2023-02-12T02:08:34;10.70;67.80
33863;DHT22;20158;51.436;-2.742;2023-02-12T02:11:00;10.70;67.80
33863;DHT22;20158;51.436;-2.742;2023-02-12T02:13:47;10.70;67.80
33863;DHT22;20158;51.436;-2.742;2023-02-12T02:16:34;10.70;67.80
33863;DHT22;20158;51.436;-2.742;2023-02-12T02:19:29;10.70;67.90
33863;DHT22;20158;51.436;-2.742;2023-02-12T02:27:46;10.70;68.00
33863;DHT22;20158;51.436;-2.742;2023-02-12T02:37:50;10.60;67.80
33863;DHT22;20158;51.436;-2.742;2023-02-12T02:40:32;10.60;68.30
33863;DHT22;20158;51.436;-2.742;2023-02-12T02:43:05;10.60;67.90
33863;DHT22;20158;51.436;-2.742;2023-02-12T02:45:51;10.60;67.90
33863;DHT22;20158;51.436;-2.742;2023-02-12T02:48:22;10.50;67.70
33863;DHT22;20158;51.436;-2.742;2023-02-12T02:50:54;10.50;67.70
33863;DHT22;20158;51.436;-2.742;2023-02-12T02:53:40;10.50;67.70
33863;DHT22;20158;51.436;-2.742;2023-02-12T02:56:12;10.50;67.80
33863;DHT22;20158;51.436;-2.742;2023-02-12T02:58:42;10.50;67.80
33863;DHT22;20158;51.436;-2.742;2023-02-12T03:01:11;10.50;67.80
33863;DHT22;20158;51.436;-2.742;2023-02-12T03:03:58;10.50;67.80
33863;DHT22;20158;51.436;-2.742;2023-02-12T03:06:35;10.50;67.90
33863;DHT22;20158;51.436;-2.742;2023-02-12T03:09:22;10.50;68.40
33863;DHT22;20158;51.436;-2.742;2023-02-12T03:11:49;10.50;67.90
33863;DHT22;20158;51.436;-2.742;2023-02-12T03:14:22;10.50;67.90
33863;DHT22;20158;51.436;-2.742;2023-02-12T03:16:59;10.50;67.90
33863;DHT22;20158;51.436;-2.742;2023-02-12T03:19:33;10.50;67.90
33863;DHT22;20158;51.436;-2.742;2023-02-12T03:22:05;10.50;68.00
33863;DHT22;20158;51.436;-2.742;2023-02-12T03:24:54;10.50;67.90
33863;DHT22;20158;51.436;-2.742;2023-02-12T03:27:25;10.50;67.90
33863;DHT22;20158;51.436;-2.742;2023-02-12T03:29:52;10.50;67.90
33863;DHT22;20158;51.436;-2.742;2023-02-12T03:40:28;10.40;67.80
33863;DHT22;20158;51.436;-2.742;2023-02-12T03:43:21;10.40;67.80
33863;DHT22;20158;51.436;-2.742;2023-02-12T03:46:02;10.40;67.80
33863;DHT22;20158;51.436;-2.742;2023-02-12T03:48:55;10.40;67.80
33863;DHT22;20158;51.436;-2.742;2023-02-12T03:51:38;10.40;67.90
33863;DHT22;20158;51.436;-2.742;2023-02-12T03:54:06;10.30;67.70
33863;DHT22;20158;51.436;-2.742;2023-02-12T03:59:05;10.40;68.00
33863;DHT22;20158;51.436;-2.742;2023-02-12T04:01:33;10.40;68.00
33863;DHT22;20158;51.436;-2.742;2023-02-12T04:04:03;10.40;68.00
33863;DHT22;20158;51.436;-2.742;2023-02-12T04:06:30;10.30;67.80
33863;DHT22;20158;51.436;-2.742;2023-02-12T04:09:06;10.40;68.00
33863;DHT22;20158;51.436;-2.742;2023-02-12T04:11:50;10.40;68.10
33863;DHT22;20158;51.436;-2.742;2023-02-12T04:14:49;10.30;67.90
33863;DHT22;20158;51.436;-2.742;2023-02-12T04:26:36;10.30;67.90
33863;DHT22;20158;51.436;-2.742;2023-02-12T04:32:01;10.30;67.90
33863;DHT22;20158;51.436;-2.742;2023-02-12T04:39:27;10.20;67.80
33863;DHT22;20158;51.436;-2.742;2023-02-12T04:41:58;10.20;67.90
33863;DHT22;20158;51.436;-2.742;2023-02-12T04:44:27;10.20;67.90
33863;DHT22;20158;51.436;-2.742;2023-02-12T04:46:53;10.20;67.90
33863;DHT22;20158;51.436;-2.742;2023-02-12T04:49:20;10.20;67.90
33863;DHT22;20158;51.436;-2.742;2023-02-12T04:51:46;10.20;67.90
33863;DHT22;20158;51.436;-2.742;2023-02-12T04:54:14;10.20;68.00
33863;DHT22;20158;51.436;-2.742;2023-02-12T04:56:40;10.20;68.00
33863;DHT22;20158;51.436;-2.742;2023-02-12T04:59:06;10.20;68.00
33863;DHT22;20158;51.436;-2.742;2023-02-12T05:01:33;10.20;68.00
33863;DHT22;20158;51.436;-2.742;2023-02-12T05:04:00;10.20;68.00
33863;DHT22;20158;51.436;-2.742;2023-02-12T05:06:26;10.20;68.00
33863;DHT22;20158;51.436;-2.742;2023-02-12T05:08:53;10.10;67.80
33863;DHT22;20158;51.436;-2.742;2023-02-12T05:11:19;10.20;68.00
33863;DHT22;20158;51.436;-2.742;2023-02-12T05:13:49;10.10;67.80
33863;DHT22;20158;51.436;-2.742;2023-02-12T05:16:16;10.20;68.00
33863;DHT22;20158;51.436;-2.742;2023-02-12T05:18:42;10.10;67.90
33863;DHT22;20158;51.436;-2.742;2023-02-12T05:21:08;10.10;67.90
33863;DHT22;20158;51.436;-2.742;2023-02-12T05:23:36;10.10;67.90
33863;DHT22;20158;51.436;-2.742;2023-02-12T05:26:08;10.10;67.90
33863;DHT22;20158;51.436;-2.742;2023-02-12T05:28:35;10.10;67.90
33863;DHT22;20158;51.436;-2.742;2023-02-12T05:31:04;10.10;67.90
33863;DHT22;20158;51.436;-2.742;2023-02-12T05:33:30;10.10;67.90
33863;DHT22;20158;51.436;-2.742;2023-02-12T05:36:11;10.10;67.90
33863;DHT22;20158;51.436;-2.742;2023-02-12T05:38:37;10.00;67.80
33863;DHT22;20158;51.436;-2.742;2023-02-12T05:41:10;10.00;67.80
33863;DHT22;20158;51.436;-2.742;2023-02-12T05:43:36;10.00;67.80
33863;DHT22;20158;51.436;-2.742;2023-02-12T05:46:04;10.00;67.80
33863;DHT22;20158;51.436;-2.742;2023-02-12T05:48:31;10.10;68.00
33863;DHT22;20158;51.436;-2.742;2023-02-12T05:51:07;10.00;68.30
33863;DHT22;20158;51.436;-2.742;2023-02-12T05:53:33;10.00;67.90
33863;DHT22;20158;51.436;-2.742;2023-02-12T05:56:08;10.00;67.90
33863;DHT22;20158;51.436;-2.742;2023-02-12T05:58:34;10.00;67.90
33863;DHT22;20158;51.436;-2.742;2023-02-12T06:01:00;10.00;67.90
33863;DHT22;20158;51.436;-2.742;2023-02-12T06:03:26;10.10;68.10
33863;DHT22;20158;51.436;-2.742;2023-02-12T06:05:52;10.10;68.10
33863;DHT22;20158;51.436;-2.742;2023-02-12T06:08:18;10.00;67.90
33863;DHT22;20158;51.436;-2.742;2023-02-12T06:10:44;10.00;67.90
33863;DHT22;20158;51.436;-2.742;2023-02-12T06:13:10;10.00;67.90
33863;DHT22;20158;51.436;-2.742;2023-02-12T06:15:36;10.00;67.90
33863;DHT22;20158;51.436;-2.742;2023-02-12T06:18:02;10.00;68.50
33863;DHT22;20158;51.436;-2.742;2023-02-12T06:20:28;10.00;68.00
33863;DHT22;20158;51.436;-2.742;2023-02-12T06:22:54;10.00;68.00
33863;DHT22;20158;51.436;-2.742;2023-02-12T06:25:20;10.00;68.00
33863;DHT22;20158;51.436;-2.742;2023-02-12T06:27:46;10.00;68.00
33863;DHT22;20158;51.436;-2.742;2023-02-12T06:30:12;10.00;68.00
33863;DHT22;20158;51.436;-2.742;2023-02-12T06:32:38;10.00;68.10
33863;DHT22;20158;51.436;-2.742;2023-02-12T06:35:05;10.00;68.10
33863;DHT22;20158;51.436;-2.742;2023-02-12T06:37:31;10.00;68.10
33863;DHT22;20158;51.436;-2.742;2023-02-12T06:39:57;10.00;68.10
33863;DHT22;20158;51.436;-2.742;2023-02-12T06:42:23;10.00;68.10
33863;DHT22;20158;51.436;-2.742;2023-02-12T06:44:49;10.00;68.10
33863;DHT22;20158;51.436;-2.742;2023-02-12T06:47:15;10.00;68.10
33863;DHT22;20158;51.436;-2.742;2023-02-12T06:49:41;10.00;68.10
33863;DHT22;20158;51.436;-2.742;2023-02-12T06:52:07;9.90;67.90
33863;DHT22;20158;51.436;-2.742;2023-02-12T06:54:33;9.90;67.90
33863;DHT22;20158;51.436;-2.742;2023-02-12T06:56:58;9.90;68.00
33863;DHT22;20158;51.436;-2.742;2023-02-12T06:59:24;9.90;68.00
33863;DHT22;20158;51.436;-2.742;2023-02-12T07:01:50;9.90;68.00
33863;DHT22;20158;51.436;-2.742;2023-02-12T07:04:16;9.90;68.00
33863;DHT22;20158;51.436;-2.742;2023-02-12T07:06:42;9.90;68.10
33863;DHT22;20158;51.436;-2.742;2023-02-12T07:09:08;9.90;68.30
33863;DHT22;20158;51.436;-2.742;2023-02-12T07:11:35;9.90;68.50
33863;DHT22;20158;51.436;-2.742;2023-02-12T07:14:01;10.00;68.80
33863;DHT22;20158;51.436;-2.742;2023-02-12T07:16:27;10.10;69.10
33863;DHT22;20158;51.436;-2.742;2023-02-12T07:18:53;10.20;69.40
33863;DHT22;20158;51.436;-2.742;2023-02-12T07:21:19;10.20;69.50
33863;DHT22;20158;51.436;-2.742;2023-02-12T07:23:47;10.30;69.80
33863;DHT22;20158;51.436;-2.742;2023-02-12T07:26:14;10.40;70.10
33863;DHT22;20158;51.436;-2.742;2023-02-12T07:28:40;10.50;70.20
33863;DHT22;20158;51.436;-2.742;2023-02-12T07:31:11;10.50;70.20
33863;DHT22;20158;51.436;-2.742;2023-02-12T07:33:38;10.60;70.30
33863;DHT22;20158;51.436;-2.742;2023-02-12T07:36:07;10.50;70.10
33863;DHT22;20158;51.436;-2.742;2023-02-12T07:38:33;10.60;70.30
33863;DHT22;20158;51.436;-2.742;2023-02-12T07:43:41;10.60;70.40
33863;DHT22;20158;51.436;-2.742;2023-02-12T07:46:10;10.60;70.30
33863;DHT22;20158;51.436;-2.742;2023-02-12T07:48:37;10.60;70.50
33863;DHT22;20158;51.436;-2.742;2023-02-12T07:51:08;10.60;70.40
33863;DHT22;20158;51.436;-2.742;2023-02-12T07:53:35;10.60;70.40
33863;DHT22;20158;51.436;-2.742;2023-02-12T07:56:09;10.70;70.60
33863;DHT22;20158;51.436;-2.742;2023-02-12T07:58:36;10.60;70.40
33863;DHT22;20158;51.436;-2.742;2023-02-12T08:01:22;10.60;70.40
33863;DHT22;20158;51.436;-2.742;2023-02-12T08:03:50;10.60;70.50
33863;DHT22;20158;51.436;-2.742;2023-02-12T08:06:21;10.70;70.60
33863;DHT22;20158;51.436;-2.742;2023-02-12T08:08:50;10.70;70.50
33863;DHT22;20158;51.436;-2.742;2023-02-12T08:11:16;10.70;70.40
33863;DHT22;20158;51.436;-2.742;2023-02-12T08:13:44;10.70;70.40
33863;DHT22;20158;51.436;-2.742;2023-02-12T08:16:15;10.70;70.30
33863;DHT22;20158;51.436;-2.742;2023-02-12T08:18:42;10.60;70.20
33863;DHT22;20158;51.436;-2.742;2023-02-12T08:21:10;10.70;70.50
33863;DHT22;20158;51.436;-2.742;2023-02-12T08:23:37;10.70;70.40
33863;DHT22;20158;51.436;-2.742;2023-02-12T08:28:38;10.70;70.30
33863;DHT22;20158;51.436;-2.742;2023-02-12T08:31:13;10.70;70.20
33863;DHT22;20158;51.436;-2.742;2023-02-12T08:33:39;10.70;70.10
33863;DHT22;20158;51.436;-2.742;2023-02-12T08:36:08;10.70;70.00
33863;DHT22;20158;51.436;-2.742;2023-02-12T08:38:35;10.80;70.10
33863;DHT22;20158;51.436;-2.742;2023-02-12T08:41:03;10.80;70.00
33863;DHT22;20158;51.436;-2.742;2023-02-12T08:43:30;10.80;69.90
33863;DHT22;20158;51.436;-2.742;2023-02-12T08:46:08;10.80;69.80
33863;DHT22;20158;51.436;-2.742;2023-02-12T08:48:34;10.80;70.20
33863;DHT22;20158;51.436;-2.742;2023-02-12T08:53:35;10.80;69.60
33863;DHT22;20158;51.436;-2.742;2023-02-12T08:56:01;10.80;69.50
33863;DHT22;20158;51.436;-2.742;2023-02-12T08:58:27;10.80;69.90
33863;DHT22;20158;51.436;-2.742;2023-02-12T09:00:53;10.80;69.30
33863;DHT22;20158;51.436;-2.742;2023-02-12T09:03:19;10.90;69.30
33863;DHT22;20158;51.436;-2.742;2023-02-12T09:05:45;10.90;69.20
33863;DHT22;20158;51.436;-2.742;2023-02-12T09:08:11;10.90;69.10
33863;DHT22;20158;51.436;-2.742;2023-02-12T09:10:41;10.90;69.10
33863;DHT22;20158;51.436;-2.742;2023-02-12T09:13:08;11.00;69.40
33863;DHT22;20158;51.436;-2.742;2023-02-12T09:15:42;11.10;69.70
33863;DHT22;20158;51.436;-2.742;2023-02-12T09:18:10;11.20;69.90
33863;DHT22;20158;51.436;-2.742;2023-02-12T09:20:38;11.30;70.00
33863;DHT22;20158;51.436;-2.742;2023-02-12T09:23:05;11.40;70.10
33863;DHT22;20158;51.436;-2.742;2023-02-12T09:25:32;11.50;70.20
33863;DHT22;20158;51.436;-2.742;2023-02-12T09:28:02;11.70;70.40
33863;DHT22;20158;51.436;-2.742;2023-02-12T09:30:28;11.80;70.50
33863;DHT22;20158;51.436;-2.742;2023-02-12T09:32:54;11.90;70.50
33863;DHT22;20158;51.436;-2.742;2023-02-12T09:35:21;12.00;70.50
33863;DHT22;20158;51.436;-2.742;2023-02-12T09:37:47;12.10;70.40
33863;DHT22;20158;51.436;-2.742;2023-02-12T09:40:41;12.20;70.40
33863;DHT22;20158;51.436;-2.742;2023-02-12T09:48:41;12.60;70.40
33863;DHT22;20158;51.436;-2.742;2023-02-12T09:51:10;12.70;70.40
33863;DHT22;20158;51.436;-2.742;2023-02-12T09:53:39;12.80;70.30
33863;DHT22;20158;51.436;-2.742;2023-02-12T09:56:16;12.80;70.00
33863;DHT22;20158;51.436;-2.742;2023-02-12T09:58:51;12.90;70.00
33863;DHT22;20158;51.436;-2.742;2023-02-12T10:01:19;13.00;70.10
33863;DHT22;20158;51.436;-2.742;2023-02-12T10:03:48;13.10;70.10
33863;DHT22;20158;51.436;-2.742;2023-02-12T10:06:40;13.10;69.90
33863;DHT22;20158;51.436;-2.742;2023-02-12T10:25:50;13.40;69.00
33863;DHT22;20158;51.436;-2.742;2023-02-12T10:28:40;13.50;68.90
33863;DHT22;20158;51.436;-2.742;2023-02-12T10:33:48;13.50;68.30
33863;DHT22;20158;51.436;-2.742;2023-02-12T10:36:43;13.60;68.10
33863;DHT22;20158;51.436;-2.742;2023-02-12T10:44:48;13.70;67.40
33863;DHT22;20158;51.436;-2.742;2023-02-12T10:47:20;13.70;67.40
33863;DHT22;20158;51.436;-2.742;2023-02-12T10:49:58;13.80;67.20
33863;DHT22;20158;51.436;-2.742;2023-02-12T10:52:48;13.70;66.80
33863;DHT22;20158;51.436;-2.742;2023-02-12T10:55:33;13.80;66.50
33863;DHT22;20158;51.436;-2.742;2023-02-12T10:58:01;13.80;66.40
33863;DHT22;20158;51.436;-2.742;2023-02-12T11:00:35;13.80;66.30
33863;DHT22;20158;51.436;-2.742;2023-02-12T11:05:35;13.80;65.90
33863;DHT22;20158;51.436;-2.742;2023-02-12T11:08:02;13.90;66.00
33863;DHT22;20158;51.436;-2.742;2023-02-12T11:10:38;14.00;65.90
33863;DHT22;20158;51.436;-2.742;2023-02-12T11:13:16;14.00;65.50
33863;DHT22;20158;51.436;-2.742;2023-02-12T11:15:48;14.00;65.50
33863;DHT22;20158;51.436;-2.742;2023-02-12T11:18:25;14.10;65.40
33863;DHT22;20158;51.436;-2.742;2023-02-12T11:21:10;14.10;65.00
33863;DHT22;20158;51.436;-2.742;2023-02-12T11:23:42;14.20;64.90
33863;DHT22;20158;51.436;-2.742;2023-02-12T11:29:02;14.30;64.70
33863;DHT22;20158;51.436;-2.742;2023-02-12T11:31:41;14.40;64.40
33863;DHT22;20158;51.436;-2.742;2023-02-12T11:34:15;14.50;64.50
33863;DHT22;20158;51.436;-2.742;2023-02-12T11:36:45;14.50;64.00
33863;DHT22;20158;51.436;-2.742;2023-02-12T11:39:26;14.60;64.00
33863;DHT22;20158;51.436;-2.742;2023-02-12T11:41:55;14.70;63.90
33863;DHT22;20158;51.436;-2.742;2023-02-12T11:44:24;14.70;63.70
33863;DHT22;20158;51.436;-2.742;2023-02-12T11:47:22;14.80;63.70
33863;DHT22;20158;51.436;-2.742;2023-02-12T11:52:39;15.10;64.10
33863;DHT22;20158;51.436;-2.742;2023-02-12T11:55:17;15.20;64.00
33863;DHT22;20158;51.436;-2.742;2023-02-12T11:57:49;15.40;64.30
33863;DHT22;20158;51.436;-2.742;2023-02-12T12:00:20;15.50;64.20
33863;DHT22;20158;51.436;-2.742;2023-02-12T12:05:20;15.70;63.90
33863;DHT22;20158;51.436;-2.742;2023-02-12T12:07:58;15.80;63.80
33863;DHT22;20158;51.436;-2.742;2023-02-12T12:10:36;15.80;63.50
33863;DHT22;20158;51.436;-2.742;2023-02-12T12:13:11;15.90;63.40
33863;DHT22;20158;51.436;-2.742;2023-02-12T12:15:48;16.00;63.40
33863;DHT22;20158;51.436;-2.742;2023-02-12T12:18:45;16.00;63.20
33863;DHT22;20158;51.436;-2.742;2023-02-12T12:26:45;16.10;62.70
33863;DHT22;20158;51.436;-2.742;2023-02-12T12:29:14;16.20;62.50
33863;DHT22;20158;51.436;-2.742;2023-02-12T12:31:51;16.10;61.60
33863;DHT22;20158;51.436;-2.742;2023-02-12T12:34:22;16.00;60.50
33863;DHT22;20158;51.436;-2.742;2023-02-12T12:58:36;14.80;56.60
33863;DHT22;20158;51.436;-2.742;2023-02-12T13:06:37;14.60;55.80
33863;DHT22;20158;51.436;-2.742;2023-02-12T13:15:08;14.50;55.80
33863;DHT22;20158;51.436;-2.742;2023-02-12T13:24:04;14.50;55.40
33863;DHT22;20158;51.436;-2.742;2023-02-12T13:29:05;14.50;55.00
33863;DHT22;20158;51.436;-2.742;2023-02-12T13:31:47;14.60;55.00
33863;DHT22;20158;51.436;-2.742;2023-02-12T13:34:16;14.50;55.30
33863;DHT22;20158;51.436;-2.742;2023-02-12T13:36:43;14.60;54.80
33863;DHT22;20158;51.436;-2.742;2023-02-12T13:39:20;14.60;54.60
33863;DHT22;20158;51.436;-2.742;2023-02-12T13:48:22;14.40;53.70
33863;DHT22;20158;51.436;-2.742;2023-02-12T13:50:55;14.30;53.70
33863;DHT22;20158;51.436;-2.742;2023-02-12T13:53:33;14.30;53.80
33863;DHT22;20158;51.436;-2.742;2023-02-12T13:56:26;14.20;54.00
33863;DHT22;20158;51.436;-2.742;2023-02-12T13:58:54;14.20;53.90
33863;DHT22;20158;51.436;-2.742;2023-02-12T14:07:09;14.00;53.60
33863;DHT22;20158;51.436;-2.742;2023-02-12T14:09:41;14.00;53.50
33863;DHT22;20158;51.436;-2.742;2023-02-12T14:14:54;13.90;53.60
33863;DHT22;20158;51.436;-2.742;2023-02-12T14:19:56;13.90;53.60
33863;DHT22;20158;51.436;-2.742;2023-02-12T14:24:53;13.90;53.50
33863;DHT22;20158;51.436;-2.742;2023-02-12T14:28:16;13.90;53.50
33863;DHT22;20158;51.436;-2.742;2023-02-12T14:30:25;13.90;53.30
33863;DHT22;20158;51.436;-2.742;2023-02-12T14:37:56;13.90;53.50
33863;DHT22;20158;51.436;-2.742;2023-02-12T14:43:34;13.80;53.20
33863;DHT22;20158;51.436;-2.742;2023-02-12T14:51:30;13.90;54.40
33863;DHT22;20158;51.436;-2.742;2023-02-12T14:53:58;14.10;55.00
33863;DHT22;20158;51.436;-2.742;2023-02-12T14:56:26;14.20;55.20
33863;DHT22;20158;51.436;-2.742;2023-02-12T14:58:52;14.30;55.30
33863;DHT22;20158;51.436;-2.742;2023-02-12T15:01:32;14.30;55.30
33863;DHT22;20158;51.436;-2.742;2023-02-12T15:04:07;14.40;55.40
33863;DHT22;20158;51.436;-2.742;2023-02-12T15:06:42;14.40;55.50
33863;DHT22;20158;51.436;-2.742;2023-02-12T15:09:14;14.40;55.40
33863;DHT22;20158;51.436;-2.742;2023-02-12T15:11:48;14.40;55.40
33863;DHT22;20158;51.436;-2.742;2023-02-12T15:14:26;14.40;55.40
33863;DHT22;20158;51.436;-2.742;2023-02-12T15:17:25;14.40;55.40
33863;DHT22;20158;51.436;-2.742;2023-02-12T15:20:04;14.40;55.60
33863;DHT22;20158;51.436;-2.742;2023-02-12T15:22:39;14.40;55.40
33863;DHT22;20158;51.436;-2.742;2023-02-12T15:30:52;14.30;55.50
33863;DHT22;20158;51.436;-2.742;2023-02-12T15:33:27;14.30;55.60
33863;DHT22;20158;51.436;-2.742;2023-02-12T15:35:54;14.20;55.40
33863;DHT22;20158;51.436;-2.742;2023-02-12T15:38:33;14.20;55.50
33863;DHT22;20158;51.436;-2.742;2023-02-12T15:41:01;14.20;55.40
33863;DHT22;20158;51.436;-2.742;2023-02-12T15:43:32;14.10;55.40
33863;DHT22;20158;51.436;-2.742;2023-02-12T15:46:03;14.10;55.50
33863;DHT22;20158;51.436;-2.742;2023-02-12T15:48:33;14.10;55.60
33863;DHT22;20158;51.436;-2.742;2023-02-12T15:51:34;14.10;55.60
33863;DHT22;20158;51.436;-2.742;2023-02-12T15:54:05;14.00;55.40
33863;DHT22;20158;51.436;-2.742;2023-02-12T15:56:31;14.00;55.60
33863;DHT22;20158;51.436;-2.742;2023-02-12T15:59:00;13.90;55.50
33863;DHT22;20158;51.436;-2.742;2023-02-12T16:01:32;13.90;55.60
33863;DHT22;20158;51.436;-2.742;2023-02-12T16:04:02;13.80;55.50
33863;DHT22;20158;51.436;-2.742;2023-02-12T16:06:31;13.80;55.70
33863;DHT22;20158;51.436;-2.742;2023-02-12T16:09:14;13.80;55.70
33863;DHT22;20158;51.436;-2.742;2023-02-12T16:11:45;13.70;55.70
33863;DHT22;20158;51.436;-2.742;2023-02-12T16:14:21;13.70;55.80
33863;DHT22;20158;51.436;-2.742;2023-02-12T16:16:50;13.60;55.70
33863;DHT22;20158;51.436;-2.742;2023-02-12T16:19:18;13.60;55.70
33863;DHT22;20158;51.436;-2.742;2023-02-12T16:22:14;13.60;55.80
33863;DHT22;20158;51.436;-2.742;2023-02-12T16:24:34;13.50;55.70
33863;DHT22;20158;51.436;-2.742;2023-02-12T16:27:19;13.50;55.80
33863;DHT22;20158;51.436;-2.742;2023-02-12T16:29:57;13.50;55.80
33863;DHT22;20158;51.436;-2.742;2023-02-12T16:32:36;13.50;56.00
33863;DHT22;20158;51.436;-2.742;2023-02-12T16:42:27;13.30;56.00
33863;DHT22;20158;51.436;-2.742;2023-02-12T16:44:54;13.30;56.10
33863;DHT22;20158;51.436;-2.742;2023-02-12T16:47:22;13.30;56.20
33863;DHT22;20158;51.436;-2.742;2023-02-12T16:49:56;13.20;56.10
33863;DHT22;20158;51.436;-2.742;2023-02-12T16:52:39;13.20;56.20
33863;DHT22;20158;51.436;-2.742;2023-02-12T16:55:14;13.10;56.00
33863;DHT22;20158;51.436;-2.742;2023-02-12T16:57:40;13.00;56.00
33863;DHT22;20158;51.436;-2.742;2023-02-12T17:00:08;13.00;56.20
33863;DHT22;20158;51.436;-2.742;2023-02-12T17:02:34;12.90;56.10
33863;DHT22;20158;51.436;-2.742;2023-02-12T17:05:04;12.90;56.20
33863;DHT22;20158;51.436;-2.742;2023-02-12T17:07:33;12.80;56.30
33863;DHT22;20158;51.436;-2.742;2023-02-12T17:09:59;12.70;56.10
33863;DHT22;20158;51.436;-2.742;2023-02-12T17:12:26;12.70;56.20
33863;DHT22;20158;51.436;-2.742;2023-02-12T17:14:52;12.70;56.40
33863;DHT22;20158;51.436;-2.742;2023-02-12T17:17:20;12.70;56.50
33863;DHT22;20158;51.436;-2.742;2023-02-12T17:19:47;12.60;56.50
33863;DHT22;20158;51.436;-2.742;2023-02-12T17:22:23;12.50;56.40
33863;DHT22;20158;51.436;-2.742;2023-02-12T17:24:51;12.50;56.90
33863;DHT22;20158;51.436;-2.742;2023-02-12T17:27:18;12.50;57.00
33863;DHT22;20158;51.436;-2.742;2023-02-12T17:29:46;12.50;57.20
33863;DHT22;20158;51.436;-2.742;2023-02-12T17:32:12;12.40;57.20
33863;DHT22;20158;51.436;-2.742;2023-02-12T17:34:39;12.50;57.60
33863;DHT22;20158;51.436;-2.742;2023-02-12T17:37:05;12.40;57.70
33863;DHT22;20158;51.436;-2.742;2023-02-12T17:39:33;12.40;57.80
33863;DHT22;20158;51.436;-2.742;2023-02-12T17:41:59;12.40;57.80
33863;DHT22;20158;51.436;-2.742;2023-02-12T17:44:26;12.40;57.90
33863;DHT22;20158;51.436;-2.742;2023-02-12T17:46:52;12.30;57.80
33863;DHT22;20158;51.436;-2.742;2023-02-12T17:49:18;12.40;58.10
33863;DHT22;20158;51.436;-2.742;2023-02-12T17:51:44;12.30;58.00
33863;DHT22;20158;51.436;-2.742;2023-02-12T17:54:10;12.20;57.90
33863;DHT22;20158;51.436;-2.742;2023-02-12T17:56:36;12.20;57.90
33863;DHT22;20158;51.436;-2.742;2023-02-12T17:59:02;12.20;57.90
33863;DHT22;20158;51.436;-2.742;2023-02-12T18:01:28;12.10;57.80
33863;DHT22;20158;51.436;-2.742;2023-02-12T18:03:57;12.10;57.80
33863;DHT22;20158;51.436;-2.742;2023-02-12T18:06:25;12.10;57.90
33863;DHT22;20158;51.436;-2.742;2023-02-12T18:08:52;12.00;57.80
33863;DHT22;20158;51.436;-2.742;2023-02-12T18:11:19;12.00;57.90
33863;DHT22;20158;51.436;-2.742;2023-02-12T18:13:45;11.90;57.70
33863;DHT22;20158;51.436;-2.742;2023-02-12T18:16:12;11.90;57.90
33863;DHT22;20158;51.436;-2.742;2023-02-12T18:18:38;11.90;58.20
33863;DHT22;20158;51.436;-2.742;2023-02-12T18:21:07;11.90;58.20
33863;DHT22;20158;51.436;-2.742;2023-02-12T18:23:33;11.90;58.30
33863;DHT22;20158;51.436;-2.742;2023-02-12T18:25:59;11.90;58.20
33863;DHT22;20158;51.436;-2.742;2023-02-12T18:28:25;11.80;58.10
33863;DHT22;20158;51.436;-2.742;2023-02-12T18:30:56;11.80;58.20
33863;DHT22;20158;51.436;-2.742;2023-02-12T18:33:22;11.80;58.20
33863;DHT22;20158;51.436;-2.742;2023-02-12T18:36:12;11.80;58.30
33863;DHT22;20158;51.436;-2.742;2023-02-12T18:38:39;11.80;58.40
33863;DHT22;20158;51.436;-2.742;2023-02-12T18:41:10;11.80;58.40
33863;DHT22;20158;51.436;-2.742;2023-02-12T18:43:37;11.70;58.20